Terminal Aerodrome Forecast
Issued by NWS

Home | Current Version | Previous Version | Text Only | Print | Product List | Glossary Off
Versions: 1 2 3 4 5 6 7 8 9 10 11 12 13

000
FTUS43 KGLD 280520
TAFMCK
TAF
KMCK 280520Z 2806/2906 28006KT P6SM BKN250
     FM281400 32012KT P6SM FEW200
     FM290200 29006KT P6SM FEW200=

USA.gov is the U.S. government's official web portal to all federal, state and local government web resources and services.